Second Mesa, Arizona
Current Conditions -  °F | °C
As of 5:56 PM on Saturday 22 Nov 2014 (Local Time) from KINW Reporting Station
Clear Clear  
Wind Chill: 53°   Ceiling: Unl
Heat Index: 53°   Visibility: 10mi
Dew Point: 20°   Wind: 12mph
Humidity: 27%   Direction: 220°SW
Pressure: 29.96"   Gusts: NA
Location:  35.82°N, 110.5°W
Report Text: KINW 230056Z AUTO 22010KT 10SM CLR 12/M07 A2996 RMK AO2 SLP146 T01171067
Loading
Personal Weather Stations






























Interactive Weather Map New forecast layout! Learn more

10-Day Weather Forecast

Advertisements
Track Severe Weather on mobile